ADDS METAR Data INFO
IDs: Format: Raw Decoded Include TAF

Data at: 0903 UTC 20 Oct 2017

KMQI 200845Z AUTO 00000KT 10SM CLR A3019 RMK AO2
KMQI 200825Z AUTO 00000KT 5SM HZ CLR A3019 RMK AO2
KMQI 200805Z AUTO 00000KT 1 3/4SM BR VV007 A3019 RMK AO2 VIS 1/2V5
KMQI 200745Z AUTO 00000KT 10SM CLR A3019 RMK AO2
KMQI 200725Z AUTO 00000KT 10SM CLR A3019 RMK AO2
KMQI 200705Z AUTO 00000KT 4SM HZ CLR A3019 RMK AO2
KMQI 200645Z AUTO 00000KT 3/4SM BR VV005 A3020 RMK AO2
KMQI 200625Z AUTO 00000KT 1 1/4SM BR VV007 A3020 RMK AO2
KMQI 200605Z AUTO 00000KT 1/2SM FG BKN003 A3020 RMK AO2
KMQI 200545Z AUTO 00000KT 3/4SM BR VV005 A3020 RMK AO2
KMQI 200525Z AUTO 00000KT 7SM CLR A3020 RMK AO2
KMQI 200505Z AUTO 00000KT 7SM CLR A3020 RMK AO2
KMQI 200445Z AUTO 00000KT 10SM CLR A3020 RMK AO2
KMQI 200425Z AUTO 00000KT 10SM CLR A3020 RMK AO2
KMQI 200405Z AUTO 00000KT 10SM CLR A3020 RMK AO2
KMQI 200345Z AUTO 00000KT 4SM HZ CLR A3020 RMK AO2
KMQI 200325Z AUTO 00000KT 5SM HZ CLR A3021 RMK AO2
KMQI 200305Z AUTO 00000KT 10SM CLR A3020 RMK AO2
KMQI 200245Z AUTO 00000KT 10SM CLR A3020 RMK AO2
KMQI 200225Z AUTO 00000KT 10SM CLR A3020 RMK AO2
KMQI 200205Z AUTO 00000KT 10SM CLR A3021 RMK AO2
KMQI 200145Z AUTO 00000KT 10SM CLR A3021 RMK AO2
KMQI 200125Z AUTO 00000KT 10SM CLR A3021 RMK AO2
KMQI 200105Z AUTO 00000KT 10SM CLR A3020 RMK AO2
KMQI 200045Z AUTO 00000KT 10SM CLR A3020 RMK AO2
KMQI 200025Z AUTO 00000KT 10SM CLR A3020 RMK AO2
KMQI 200005Z AUTO 00000KT 10SM CLR A3020 RMK AO2
KMQI 192345Z AUTO 00000KT 10SM CLR A3020 RMK AO2
KMQI 192325Z AUTO 00000KT 10SM CLR A3020 RMK AO2
KMQI 192305Z AUTO 00000KT 10SM CLR A3019 RMK AO2
KMQI 192245Z AUTO 00000KT 10SM CLR A3019 RMK AO2
KMQI 192225Z AUTO 00000KT 10SM CLR A3019 RMK AO2
KMQI 192205Z AUTO 09003KT 10SM CLR A3019 RMK AO2
KMQI 192145Z AUTO 09004KT 10SM CLR A3019 RMK AO2
KMQI 192125Z AUTO 08004KT 10SM CLR A3019 RMK AO2
KMQI 192105Z AUTO 11006KT 10SM CLR A3019 RMK AO2
KMQI 192045Z AUTO 07006KT 10SM CLR A3019 RMK AO2
KMQI 192025Z AUTO 08006KT 10SM CLR A3020 RMK AO2
KMQI 192005Z AUTO 05006KT 10SM CLR A3020 RMK AO2
KMQI 191945Z AUTO 08004KT 10SM CLR A3021 RMK AO2
KMQI 191925Z AUTO 07006KT 10SM CLR A3020 RMK AO2
KMQI 191905Z AUTO 08005KT 10SM CLR A3020 RMK AO2
KMQI 191845Z AUTO 08005KT 10SM CLR A3021 RMK AO2
KMQI 191825Z AUTO 10005KT 10SM CLR A3021 RMK AO2
KMQI 191805Z AUTO 08005KT 10SM CLR A3022 RMK AO2
KMQI 191745Z AUTO 11006KT 10SM CLR A3023 RMK AO2
KMQI 191725Z AUTO 08005KT 10SM CLR A3024 RMK AO2
KMQI 191705Z AUTO 08005KT 10SM CLR A3025 RMK AO2
KMQI 191645Z AUTO 08007KT 10SM CLR A3026 RMK AO2
KMQI 191625Z AUTO 08007KT 10SM CLR A3027 RMK AO2
KMQI 191605Z AUTO 11007KT 10SM CLR A3028 RMK AO2
KMQI 191545Z AUTO 09008KT 10SM CLR A3028 RMK AO2
KMQI 191525Z AUTO 11009KT 10SM CLR A3028 RMK AO2
KMQI 191505Z AUTO 11008KT 10SM CLR A3029 RMK AO2
KMQI 191445Z AUTO 10007KT 070V130 10SM CLR A3028 RMK AO2
KMQI 191425Z AUTO 11010KT 10SM CLR A3029 RMK AO2
KMQI 191405Z AUTO 10009KT 10SM CLR A3029 RMK AO2
KMQI 191345Z AUTO 08008KT 10SM CLR A3029 RMK AO2
KMQI 191325Z AUTO 09008KT 10SM CLR A3029 RMK AO2
KMQI 191305Z AUTO 08007KT 10SM CLR A3029 RMK AO2
KMQI 191245Z AUTO 08007KT 10SM CLR A3029 RMK AO2
KMQI 191225Z AUTO 07008KT 10SM CLR A3028 RMK AO2
KMQI 191205Z AUTO 07006KT 10SM CLR A3028 RMK AO2
KMQI 191145Z AUTO 07007KT 10SM CLR A3028 RMK AO2
KMQI 191125Z AUTO 07006KT 10SM CLR A3027 RMK AO2
KMQI 191105Z AUTO 08006KT 10SM CLR A3027 RMK AO2
KMQI 191045Z AUTO 08006KT 10SM CLR A3027 RMK AO2
KMQI 191025Z AUTO 06006KT 10SM CLR 17/14 A3028 RMK AO2 T01650141
KMQI 191005Z AUTO 07005KT 10SM CLR A3027 RMK AO2
KMQI 190945Z AUTO 07005KT 10SM CLR 16/14 A3027 RMK AO2 T01630140
KMQI 190925Z AUTO 06005KT 10SM CLR 16/14 A3027 RMK AO2 T01610141
KMQI 190905Z AUTO 08006KT 10SM CLR 17/14 A3027 RMK AO2 T01660143
KMQI 190845Z AUTO 06005KT 10SM CLR A3027 RMK AO2
KMQI 190825Z AUTO 08005KT 10SM CLR 17/15 A3027 RMK AO2 T01690145
KMQI 190805Z AUTO 06007KT 10SM SCT050 17/14 A3027 RMK AO2 T01660144
KMQI 190745Z AUTO 06006KT 10SM CLR 16/14 A3027 RMK AO2 T01610141
KMQI 190725Z AUTO 07005KT 10SM CLR 16/14 A3028 RMK AO2 T01560140
KMQI 190705Z AUTO 06005KT 10SM CLR A3028 RMK AO2
KMQI 190645Z AUTO 07006KT 10SM CLR 15/14 A3028 RMK AO2 T01510140
KMQI 190625Z AUTO 05005KT 10SM CLR A3029 RMK AO2
KMQI 190605Z AUTO 05005KT 10SM CLR A3030 RMK AO2
KMQI 190545Z AUTO 04004KT 10SM CLR A3030 RMK AO2
KMQI 190525Z AUTO 06004KT 10SM CLR A3030 RMK AO2
KMQI 190505Z AUTO 04005KT 10SM CLR A3030 RMK AO2
KMQI 190445Z AUTO 04005KT 10SM CLR A3030 RMK AO2
KMQI 190425Z AUTO 05004KT 10SM CLR A3030 RMK AO2
KMQI 190405Z AUTO 06004KT 10SM CLR A3030 RMK AO2
KMQI 190345Z AUTO 07005KT 10SM CLR A3030 RMK AO2
KMQI 190325Z AUTO 06004KT 10SM CLR A3031 RMK AO2
KMQI 190305Z AUTO 05004KT 10SM CLR A3031 RMK AO2
KMQI 190245Z AUTO 05004KT 10SM CLR A3032 RMK AO2
KMQI 190225Z AUTO 05004KT 10SM CLR A3032 RMK AO2
KMQI 190205Z AUTO 05003KT 10SM CLR A3032 RMK AO2
KMQI 190145Z AUTO 06005KT 10SM CLR A3032 RMK AO2
KMQI 190125Z AUTO 07005KT 10SM CLR A3032 RMK AO2
KMQI 190105Z AUTO 07005KT 10SM CLR A3032 RMK AO2
KMQI 190045Z AUTO 08006KT 10SM CLR A3031 RMK AO2
KMQI 190025Z AUTO 08007KT 10SM CLR A3032 RMK AO2
KMQI 190005Z AUTO 07006KT 10SM CLR A3032 RMK AO2
KMQI 182345Z AUTO 07006KT 10SM CLR A3032 RMK AO2
KMQI 182325Z AUTO 07007KT 10SM CLR A3032 RMK AO2
KMQI 182305Z AUTO 06007KT 10SM CLR A3032 RMK AO2
KMQI 182245Z AUTO 07007KT 10SM CLR A3031 RMK AO2
KMQI 182225Z AUTO 06008KT 10SM CLR A3031 RMK AO2
KMQI 182205Z AUTO 06007KT 10SM CLR A3031 RMK AO2
KMQI 182145Z AUTO 05008KT 10SM CLR A3031 RMK AO2
KMQI 182125Z AUTO 06009KT 10SM CLR A3031 RMK AO2
KMQI 182105Z AUTO 04007KT 10SM CLR A3032 RMK AO2